createdAt,value
2023-04-18T00:01:08.116Z,19.25
2023-04-18T00:03:39.056Z,23.13
2023-04-18T00:06:08.190Z,19.92
2023-04-18T00:08:37.130Z,20.77
2023-04-18T00:11:06.020Z,21.17
2023-04-18T00:13:35.290Z,19.55
2023-04-18T00:16:04.092Z,19.75
2023-04-18T00:18:37.049Z,19.50
2023-04-18T00:21:06.523Z,19.95
2023-04-18T00:23:35.552Z,20.70
2023-04-18T00:26:04.490Z,19.17
2023-04-18T00:28:33.422Z,18.95
2023-04-18T00:31:02.248Z,20.10
2023-04-18T00:33:35.474Z,19.67
2023-04-18T00:36:04.687Z,19.13
2023-04-18T00:38:33.588Z,18.85
2023-04-18T00:41:02.343Z,17.63
2023-04-18T00:43:32.408Z,18.77
2023-04-18T00:46:01.953Z,19.88
2023-04-18T00:48:31.818Z,20.77
2023-04-18T00:51:02.381Z,20.67
2023-04-18T00:53:31.912Z,15.70
2023-04-18T00:56:00.723Z,18.33
2023-04-18T00:58:29.762Z,18.33
2023-04-18T01:00:59.986Z,17.58
2023-04-18T01:03:29.244Z,17.25
2023-04-18T01:05:58.356Z,19.35
2023-04-18T01:08:28.897Z,17.00
2023-04-18T01:11:00.123Z,18.70
2023-04-18T01:13:29.071Z,19.48
2023-04-18T01:15:59.028Z,16.25
2023-04-18T01:18:27.990Z,18.15
2023-04-18T01:22:10.929Z,18.80
2023-04-18T01:24:42.164Z,15.75
2023-04-18T01:27:13.399Z,18.15
2023-04-18T01:29:42.387Z,19.17
2023-04-18T01:32:11.192Z,19.52
2023-04-18T01:34:40.274Z,16.83
2023-04-18T01:37:08.884Z,16.60
2023-04-18T01:39:37.816Z,15.20
2023-04-18T01:42:07.966Z,16.60
2023-04-18T01:44:36.901Z,16.92
2023-04-18T01:47:05.971Z,16.73
2023-04-18T01:49:35.082Z,18.67
2023-04-18T01:52:03.769Z,17.35
2023-04-18T01:54:32.706Z,16.80
2023-04-18T01:57:01.419Z,17.40
2023-04-18T01:59:31.722Z,18.20
2023-04-18T02:02:01.004Z,17.02
2023-04-18T02:04:30.129Z,16.40
2023-04-18T02:06:58.808Z,17.00
2023-04-18T02:09:27.724Z,18.00
2023-04-18T02:11:59.376Z,18.67
2023-04-18T02:14:29.196Z,17.33
2023-04-18T02:17:03.766Z,19.42
2023-04-18T02:19:33.220Z,17.58
2023-04-18T02:22:02.991Z,17.98
2023-04-18T02:24:33.572Z,17.80
2023-04-18T02:27:02.222Z,18.88
2023-04-18T02:29:31.218Z,20.98
2023-04-18T02:32:00.172Z,20.30
2023-04-18T02:34:30.601Z,20.35
2023-04-18T02:36:59.328Z,18.70
2023-04-18T02:39:28.357Z,17.77
2023-04-18T02:41:56.989Z,17.55
2023-04-18T02:44:26.999Z,20.05
2023-04-18T02:46:57.310Z,17.15
2023-04-18T02:49:26.378Z,19.67
2023-04-18T02:51:57.252Z,18.27
2023-04-18T02:54:26.233Z,17.48
2023-04-18T02:57:01.342Z,20.20
2023-04-18T02:59:43.301Z,20.00
2023-04-18T03:02:41.471Z,20.30
2023-04-18T03:05:24.033Z,18.38
2023-04-18T03:07:56.732Z,20.58
2023-04-18T03:10:26.269Z,21.40
2023-04-18T03:12:54.997Z,23.08
2023-04-18T03:15:24.166Z,20.67
2023-04-18T03:17:54.315Z,20.98
2023-04-18T03:20:25.125Z,20.33
2023-04-18T03:22:55.879Z,22.48
2023-04-18T03:25:27.404Z,20.38
2023-04-18T03:27:56.373Z,21.13
2023-04-18T03:30:27.361Z,20.75
2023-04-18T03:32:58.754Z,21.90
2023-04-18T03:35:27.898Z,25.77
2023-04-18T03:37:58.890Z,20.80
2023-04-18T03:40:31.895Z,21.63
2023-04-18T03:43:07.534Z,21.27
2023-04-18T03:45:37.161Z,23.15
2023-04-18T03:48:07.229Z,24.25
2023-04-18T03:50:40.641Z,21.40
2023-04-18T03:53:14.413Z,21.88
2023-04-18T03:55:44.474Z,19.27
2023-04-18T03:58:16.252Z,22.48
2023-04-18T04:00:46.491Z,21.40
2023-04-18T04:03:15.548Z,22.13
2023-04-18T04:05:44.728Z,22.13
2023-04-18T04:08:16.405Z,21.05
2023-04-18T04:10:47.002Z,21.77
2023-04-18T04:13:15.966Z,17.27
2023-04-18T04:15:45.394Z,20.05
2023-04-18T04:18:14.060Z,20.23
2023-04-18T04:20:47.093Z,19.27
2023-04-18T04:23:28.018Z,19.00
2023-04-18T04:25:58.682Z,22.15
2023-04-18T04:28:40.821Z,22.73
2023-04-18T04:31:10.652Z,21.08
2023-04-18T04:33:41.103Z,20.20
2023-04-18T04:36:19.082Z,20.05
2023-04-18T04:38:52.305Z,20.58
2023-04-18T04:41:25.975Z,20.65
2023-04-18T04:43:54.656Z,18.92
2023-04-18T04:46:29.504Z,18.65
2023-04-18T04:48:59.227Z,18.20
2023-04-18T04:51:29.108Z,22.88
2023-04-18T04:53:59.959Z,23.05
2023-04-18T04:56:29.194Z,21.08
2023-04-18T04:58:58.221Z,19.90
2023-04-18T05:01:33.684Z,19.23
2023-04-18T05:04:02.526Z,19.98
2023-04-18T05:06:31.845Z,20.00
2023-04-18T05:09:01.891Z,21.40
2023-04-18T05:11:30.874Z,19.10
2023-04-18T05:13:59.706Z,19.20
2023-04-18T05:16:28.807Z,20.25
2023-04-18T05:18:57.489Z,21.13
2023-04-18T05:21:27.530Z,21.52
2023-04-18T05:23:56.349Z,20.13
2023-04-18T05:26:26.760Z,20.75
2023-04-18T05:28:55.549Z,19.35
2023-04-18T05:31:24.507Z,22.95
2023-04-18T05:33:53.195Z,18.55
2023-04-18T05:36:22.985Z,19.63
2023-04-18T05:38:52.056Z,19.98
2023-04-18T05:41:21.052Z,19.17
2023-04-18T05:44:02.435Z,19.55
2023-04-18T05:46:34.457Z,18.92
2023-04-18T05:49:03.656Z,19.95
2023-04-18T05:51:32.742Z,21.88
2023-04-18T05:54:01.482Z,21.17
2023-04-18T05:56:31.317Z,17.33
2023-04-18T05:59:01.353Z,20.48
2023-04-18T06:01:30.348Z,19.42
2023-04-18T06:03:59.202Z,20.10
2023-04-18T06:06:28.389Z,19.30
2023-04-18T06:08:57.032Z,18.45
2023-04-18T06:11:25.955Z,19.48
2023-04-18T06:13:56.034Z,21.52
2023-04-18T06:16:26.549Z,23.50
2023-04-18T06:18:56.165Z,20.45
2023-04-18T06:21:25.871Z,20.58
2023-04-18T06:23:54.481Z,20.05
2023-04-18T06:26:23.459Z,22.05
2023-04-18T06:28:52.117Z,21.60
2023-04-18T06:31:21.304Z,22.05
2023-04-18T06:33:52.022Z,23.45
2023-04-18T06:36:21.156Z,20.38
2023-04-18T06:38:50.120Z,18.98
2023-04-18T06:41:19.072Z,19.15
2023-04-18T06:44:02.119Z,22.95
2023-04-18T06:46:32.484Z,18.70
2023-04-18T06:49:02.600Z,19.45
2023-04-18T06:51:31.653Z,21.13
2023-04-18T06:54:00.527Z,19.90
2023-04-18T06:56:29.742Z,19.55
2023-04-18T06:58:58.501Z,19.52
2023-04-18T07:01:27.547Z,20.65
2023-04-18T07:03:56.396Z,21.75
2023-04-18T07:06:27.488Z,19.35
2023-04-18T07:09:00.100Z,21.05
2023-04-18T07:11:29.232Z,19.02
2023-04-18T07:13:57.950Z,21.50
2023-04-18T07:16:27.047Z,18.65
2023-04-18T07:18:55.950Z,19.08
2023-04-18T07:21:26.459Z,19.88
2023-04-18T07:23:55.434Z,19.95
2023-04-18T07:26:24.594Z,18.00
2023-04-18T07:28:56.158Z,21.20
2023-04-18T07:31:25.914Z,20.48
2023-04-18T07:33:54.623Z,22.52
2023-04-18T07:36:23.773Z,17.05
2023-04-18T07:38:53.790Z,20.63
2023-04-18T07:41:22.736Z,22.92
2023-04-18T07:43:51.393Z,15.68
2023-04-18T07:46:20.464Z,19.80
2023-04-18T07:48:49.155Z,18.48
2023-04-18T07:51:18.118Z,21.52
2023-04-18T07:53:46.775Z,19.73
2023-04-18T07:56:17.413Z,19.90
2023-04-18T07:58:46.260Z,19.50
2023-04-18T08:01:18.295Z,21.63
2023-04-18T08:03:47.972Z,18.75
2023-04-18T08:06:17.825Z,19.98
2023-04-18T08:08:46.511Z,18.73
2023-04-18T08:11:16.886Z,18.15
2023-04-18T08:13:45.644Z,21.48
2023-04-18T08:16:17.067Z,17.48
2023-04-18T08:18:46.207Z,20.17
2023-04-18T08:21:15.226Z,17.85
2023-04-18T08:23:43.939Z,21.02
2023-04-18T08:26:13.266Z,19.63
2023-04-18T08:28:46.110Z,19.08
2023-04-18T08:31:17.197Z,19.42
2023-04-18T08:33:45.937Z,18.02
2023-04-18T08:36:14.932Z,18.90
2023-04-18T08:38:43.584Z,18.45
2023-04-18T08:41:12.694Z,19.35
2023-04-18T08:43:43.012Z,21.35
2023-04-18T08:46:12.387Z,17.63
2023-04-18T08:48:41.230Z,18.92
2023-04-18T08:51:10.322Z,16.83
2023-04-18T08:53:42.014Z,17.83
2023-04-18T08:56:14.701Z,18.95
2023-04-18T08:58:45.736Z,19.52
2023-04-18T09:01:15.117Z,17.65
2023-04-18T09:03:44.546Z,19.52
2023-04-18T09:06:18.682Z,17.75
2023-04-18T09:08:58.917Z,17.25
2023-04-18T09:11:32.515Z,16.60
2023-04-18T09:14:02.796Z,18.10
2023-04-18T09:16:48.251Z,18.00
2023-04-18T09:19:18.886Z,14.50
2023-04-18T09:21:48.936Z,16.40
2023-04-18T09:24:23.837Z,16.88
2023-04-18T09:26:55.929Z,17.27
2023-04-18T09:29:46.561Z,17.35
2023-04-18T09:32:27.100Z,15.00
2023-04-18T09:35:01.392Z,13.27
2023-04-18T09:37:31.851Z,15.07
2023-04-18T09:40:00.641Z,14.23
2023-04-18T09:42:37.676Z,17.27
2023-04-18T09:45:09.542Z,13.30
2023-04-18T09:47:38.567Z,13.93
2023-04-18T09:50:10.016Z,14.18
2023-04-18T09:52:42.022Z,15.52
2023-04-18T09:55:14.303Z,14.98
2023-04-18T09:57:47.241Z,14.77
2023-04-18T10:00:25.278Z,13.48
2023-04-18T10:02:59.258Z,11.23
2023-04-18T10:05:32.985Z,11.68
2023-04-18T10:08:02.247Z,12.35
2023-04-18T10:10:31.239Z,12.07
2023-04-18T10:13:03.262Z,11.70
2023-04-18T10:15:34.370Z,11.80
2023-04-18T10:18:08.092Z,11.40
2023-04-18T10:20:37.151Z,10.27
2023-04-18T10:23:37.566Z,12.32
2023-04-18T10:26:07.190Z,12.50
2023-04-18T10:28:53.284Z,10.52
2023-04-18T10:31:25.577Z,10.27
2023-04-18T10:36:28.468Z,12.13
2023-04-18T10:39:04.226Z,13.18
2023-04-18T10:41:34.689Z,10.00
2023-04-18T10:44:22.568Z,11.48
2023-04-18T10:47:23.051Z,13.00
2023-04-18T10:50:01.122Z,12.02
2023-04-18T10:52:30.452Z,13.43
2023-04-18T10:55:27.258Z,14.68
2023-04-18T10:58:00.417Z,16.48
2023-04-18T11:00:32.229Z,13.73
2023-04-18T11:03:03.030Z,12.27
2023-04-18T11:05:32.483Z,12.85
2023-04-18T11:08:01.163Z,15.63
2023-04-18T11:10:30.231Z,16.05
2023-04-18T11:13:04.535Z,17.77
2023-04-18T11:15:33.681Z,12.65
2023-04-18T11:18:06.041Z,12.00
2023-04-18T11:20:41.084Z,12.38
2023-04-18T11:23:19.650Z,12.18
2023-04-18T11:25:52.070Z,14.05
2023-04-18T11:28:22.446Z,13.30
2023-04-18T11:30:51.994Z,12.90
2023-04-18T11:33:22.083Z,12.85
2023-04-18T11:35:51.136Z,15.73
2023-04-18T11:38:21.702Z,16.23
2023-04-18T11:40:52.150Z,15.07
2023-04-18T11:43:23.990Z,16.17
2023-04-18T11:45:55.769Z,13.02
2023-04-18T11:48:34.883Z,13.40
2023-04-18T11:51:03.895Z,14.68
2023-04-18T11:53:36.779Z,15.45
2023-04-18T11:56:07.388Z,13.63
2023-04-18T11:58:37.638Z,13.20
2023-04-18T12:01:21.005Z,16.35
2023-04-18T12:04:05.445Z,15.32
2023-04-18T12:06:50.961Z,14.60
2023-04-18T12:09:22.234Z,12.75
2023-04-18T12:12:04.287Z,13.70
2023-04-18T12:14:33.037Z,12.18
2023-04-18T12:17:05.112Z,12.73
2023-04-18T12:19:35.261Z,12.85
2023-04-18T12:22:06.589Z,13.38
2023-04-18T12:24:36.155Z,13.50
2023-04-18T12:27:05.200Z,14.15
2023-04-18T12:29:33.856Z,12.95
2023-04-18T12:32:02.875Z,17.30
2023-04-18T12:34:31.595Z,11.30
2023-04-18T12:37:03.643Z,13.63
2023-04-18T12:39:32.288Z,14.93
2023-04-18T12:42:02.298Z,13.10
2023-04-18T12:44:30.918Z,10.43
2023-04-18T12:46:59.837Z,14.48
2023-04-18T12:49:28.819Z,14.88
2023-04-18T12:51:57.824Z,14.15
2023-04-18T12:54:27.860Z,12.52
2023-04-18T12:56:57.411Z,12.93
2023-04-18T12:59:26.142Z,13.95
2023-04-18T13:01:55.265Z,11.38
2023-04-18T13:04:24.253Z,12.23
2023-04-18T13:06:53.271Z,12.75
2023-04-18T13:09:21.892Z,15.82
2023-04-18T13:11:52.196Z,12.50
2023-04-18T13:14:21.249Z,13.18
2023-04-18T13:16:50.379Z,10.20
2023-04-18T13:19:19.054Z,10.48
2023-04-18T13:21:49.647Z,11.10
2023-04-18T13:24:18.377Z,10.15
2023-04-18T13:26:47.645Z,7.85
2023-04-18T13:29:17.704Z,12.30
2023-04-18T13:31:46.776Z,10.18
2023-04-18T13:34:15.568Z,10.07
2023-04-18T13:36:44.589Z,11.90
2023-04-18T13:39:14.844Z,9.93
2023-04-18T13:41:43.845Z,9.80
2023-04-18T13:44:12.462Z,9.23
2023-04-18T13:46:42.732Z,11.15
2023-04-18T13:49:11.556Z,10.40
2023-04-18T13:51:40.693Z,9.88
2023-04-18T13:54:09.398Z,10.55
2023-04-18T13:56:38.855Z,10.80
2023-04-18T13:59:07.523Z,10.45
2023-04-18T14:01:36.529Z,10.98
2023-04-18T14:04:06.873Z,8.13
2023-04-18T14:06:36.010Z,7.82
2023-04-18T14:09:04.891Z,9.10
2023-04-18T14:11:34.653Z,7.38
2023-04-18T14:14:03.636Z,9.43
2023-04-18T14:16:33.614Z,12.05
2023-04-18T14:19:02.610Z,8.80
2023-04-18T14:21:33.005Z,9.57
2023-04-18T14:24:01.745Z,9.18
2023-04-18T14:26:30.975Z,10.50
2023-04-18T14:28:59.683Z,8.27
2023-04-18T14:31:29.088Z,9.00
2023-04-18T14:33:57.826Z,7.53
2023-04-18T14:36:27.227Z,8.57
2023-04-18T14:38:57.318Z,6.45
2023-04-18T14:41:26.415Z,10.82
2023-04-18T14:43:55.257Z,8.70
2023-04-18T14:46:24.191Z,6.07
2023-04-18T14:48:52.849Z,7.00
2023-04-18T14:51:21.808Z,5.88
2023-04-18T14:53:50.629Z,5.35
2023-04-18T14:56:22.175Z,6.10
2023-04-18T14:58:51.017Z,6.13
2023-04-18T15:01:20.061Z,7.35
2023-04-18T15:03:51.398Z,6.38
2023-04-18T15:06:20.851Z,5.47
2023-04-18T15:08:49.896Z,8.15
2023-04-18T15:11:20.869Z,11.05
2023-04-18T15:13:50.749Z,7.90
2023-04-18T15:16:19.985Z,5.65
2023-04-18T15:18:48.882Z,6.03
2023-04-18T15:21:18.166Z,6.53
2023-04-18T15:23:47.015Z,7.72
2023-04-18T15:26:16.013Z,6.32
2023-04-18T15:28:46.649Z,6.10
2023-04-18T15:31:16.063Z,7.75
2023-04-18T15:33:44.832Z,7.22
2023-04-18T15:36:13.859Z,6.82
2023-04-18T15:38:42.985Z,6.45
2023-04-18T15:41:11.960Z,4.60
2023-04-18T15:43:41.907Z,6.40
2023-04-18T15:46:12.656Z,5.00
2023-04-18T15:48:41.527Z,7.15
2023-04-18T15:51:10.634Z,6.25
2023-04-18T15:53:39.342Z,5.45
2023-04-18T15:56:08.499Z,6.78
2023-04-18T15:58:37.234Z,3.92
2023-04-18T16:01:07.094Z,5.68
2023-04-18T16:03:37.962Z,5.43
2023-04-18T16:06:07.973Z,6.00
2023-04-18T16:08:36.717Z,4.13
2023-04-18T16:11:06.663Z,6.65
2023-04-18T16:13:38.316Z,5.68
2023-04-18T16:16:08.217Z,5.72
2023-04-18T16:18:38.296Z,6.43
2023-04-18T16:21:07.442Z,5.85
2023-04-18T16:23:36.370Z,5.82
2023-04-18T16:26:05.800Z,4.45
2023-04-18T16:28:37.714Z,4.97
2023-04-18T16:31:07.622Z,5.53
2023-04-18T16:33:37.722Z,5.78
2023-04-18T16:36:07.425Z,5.13
2023-04-18T16:38:36.200Z,4.50
2023-04-18T16:41:05.175Z,5.72
2023-04-18T16:43:36.501Z,5.95
2023-04-18T16:46:06.096Z,5.70
2023-04-18T16:48:37.973Z,5.45
2023-04-18T16:51:08.522Z,5.90
2023-04-18T16:53:37.164Z,5.10
2023-04-18T16:56:07.957Z,5.18
2023-04-18T16:58:36.598Z,5.93
2023-04-18T17:01:08.116Z,5.72
2023-04-18T17:03:37.540Z,6.30
2023-04-18T17:06:08.186Z,10.55
2023-04-18T17:08:36.916Z,15.32
2023-04-18T17:11:06.293Z,10.25
2023-04-18T17:13:36.055Z,7.43
2023-04-18T17:16:05.673Z,5.50
2023-04-18T17:18:34.425Z,5.97
2023-04-18T17:21:03.424Z,5.15
2023-04-18T17:23:33.433Z,5.75
2023-04-18T17:26:02.518Z,5.78
2023-04-18T17:28:31.380Z,4.63
2023-04-18T17:31:01.905Z,9.15
2023-04-18T17:33:30.693Z,6.78
2023-04-18T17:35:59.779Z,6.35
2023-04-18T17:38:28.428Z,7.35
2023-04-18T17:41:02.912Z,6.75
2023-04-18T17:43:31.688Z,6.93
2023-04-18T17:46:03.634Z,7.90
2023-04-18T17:48:32.520Z,6.13
2023-04-18T17:51:02.136Z,6.63
2023-04-18T17:53:32.285Z,9.68
2023-04-18T17:56:03.855Z,6.53
2023-04-18T17:58:32.491Z,8.43
2023-04-18T18:01:01.547Z,10.02
2023-04-18T18:03:30.582Z,9.15
2023-04-18T18:05:59.931Z,10.13
2023-04-18T18:08:29.649Z,7.97
2023-04-18T18:10:58.650Z,7.75
2023-04-18T18:13:28.707Z,9.27
2023-04-18T18:15:58.088Z,7.43
2023-04-18T18:18:31.435Z,9.43
2023-04-18T18:21:00.584Z,7.53
2023-04-18T18:23:29.438Z,10.68
2023-04-18T18:25:58.478Z,10.90
2023-04-18T18:28:28.916Z,9.10
2023-04-18T18:30:57.875Z,10.32
2023-04-18T18:33:27.878Z,9.65
2023-04-18T18:35:58.648Z,9.38
2023-04-18T18:38:27.448Z,8.73
2023-04-18T18:40:56.518Z,8.07
2023-04-18T18:43:26.348Z,7.82
2023-04-18T18:45:56.801Z,7.55
2023-04-18T18:48:26.031Z,8.40
2023-04-18T18:50:56.544Z,8.18
2023-04-18T18:53:25.198Z,9.43
2023-04-18T18:55:54.171Z,8.52
2023-04-18T18:58:22.976Z,7.05
2023-04-18T19:00:52.163Z,7.40
2023-04-18T19:03:22.249Z,8.07
2023-04-18T19:05:51.464Z,7.18
2023-04-18T19:08:20.122Z,7.30
2023-04-18T19:10:49.343Z,7.68
2023-04-18T19:13:22.446Z,6.82
2023-04-18T19:15:51.650Z,8.63
2023-04-18T19:18:21.763Z,10.02
2023-04-18T19:20:51.704Z,8.20
2023-04-18T19:23:20.501Z,9.40
2023-04-18T19:25:49.491Z,8.43
2023-04-18T19:28:18.489Z,9.43
2023-04-18T19:30:47.621Z,9.77
2023-04-18T19:33:17.294Z,10.23
2023-04-18T19:35:47.633Z,11.15
2023-04-18T19:38:16.446Z,11.02
2023-04-18T19:40:45.586Z,7.93
2023-04-18T19:43:14.551Z,8.68
2023-04-18T19:45:43.598Z,11.07
2023-04-18T19:48:12.343Z,8.32
2023-04-18T19:50:42.305Z,9.18
2023-04-18T19:53:12.864Z,8.18
2023-04-18T19:55:41.853Z,7.93
2023-04-18T19:58:10.595Z,10.15
2023-04-18T20:00:39.700Z,8.05
2023-04-18T20:03:08.676Z,7.70
2023-04-18T20:05:37.846Z,7.93
2023-04-18T20:08:07.332Z,11.05
2023-04-18T20:10:37.809Z,7.55
2023-04-18T20:13:06.995Z,8.80
2023-04-18T20:15:36.668Z,9.40
2023-04-18T20:18:05.610Z,9.07
2023-04-18T20:20:35.770Z,9.45
2023-04-18T20:23:04.486Z,7.00
2023-04-18T20:25:34.833Z,7.68
2023-04-18T20:28:05.410Z,8.25
2023-04-18T20:30:36.232Z,6.65
2023-04-18T20:33:05.532Z,8.15
2023-04-18T20:35:34.559Z,9.65
2023-04-18T20:38:03.363Z,8.65
2023-04-18T20:40:33.316Z,9.50
2023-04-18T20:43:03.031Z,8.50
2023-04-18T20:45:34.774Z,10.18
2023-04-18T20:48:03.683Z,8.40
2023-04-18T20:50:32.874Z,8.27
2023-04-18T20:53:02.371Z,10.00
2023-04-18T20:55:31.427Z,7.57
2023-04-18T20:58:00.100Z,8.55
2023-04-18T21:00:29.577Z,9.30
2023-04-18T21:02:59.879Z,10.88
2023-04-18T21:05:29.126Z,7.88
2023-04-18T21:07:59.647Z,9.35
2023-04-18T21:10:28.639Z,10.75
2023-04-18T21:12:57.351Z,10.18
2023-04-18T21:15:26.456Z,9.48
2023-04-18T21:17:55.200Z,8.40
2023-04-18T21:20:25.870Z,9.05
2023-04-18T21:22:54.735Z,9.20
2023-04-18T21:25:23.850Z,10.60
2023-04-18T21:27:52.737Z,10.40
2023-04-18T21:30:23.421Z,10.30
2023-04-18T21:32:52.287Z,9.73
2023-04-18T21:35:23.404Z,12.55
2023-04-18T21:37:54.966Z,12.02
2023-04-18T21:40:24.394Z,9.15
2023-04-18T21:42:53.038Z,9.95
2023-04-18T21:45:22.446Z,9.40
2023-04-18T21:47:51.349Z,9.25
2023-04-18T21:50:20.473Z,10.15
2023-04-18T21:52:49.363Z,8.63
2023-04-18T21:55:19.994Z,10.18
2023-04-18T21:57:48.911Z,8.30
2023-04-18T22:00:19.090Z,10.20
2023-04-18T22:02:48.136Z,10.02
2023-04-18T22:05:17.855Z,10.75
2023-04-18T22:07:57.494Z,9.98
2023-04-18T22:10:29.085Z,7.78
2023-04-18T22:12:58.438Z,9.05
2023-04-18T22:15:27.921Z,8.23
2023-04-18T22:17:57.835Z,11.15
2023-04-18T22:20:27.855Z,7.80
2023-04-18T22:22:56.471Z,7.38
2023-04-18T22:25:25.686Z,7.75
2023-04-18T22:27:55.876Z,6.78
2023-04-18T22:30:24.877Z,8.45
2023-04-18T22:32:53.632Z,7.47
2023-04-18T22:35:22.859Z,8.13
2023-04-18T22:37:51.457Z,7.43
2023-04-18T22:40:20.695Z,7.45
2023-04-18T22:42:51.851Z,6.80
2023-04-18T22:45:22.866Z,7.05
2023-04-18T22:47:51.609Z,7.72
2023-04-18T22:50:20.947Z,7.68
2023-04-18T22:52:50.667Z,8.43
2023-04-18T22:55:20.267Z,9.75
2023-04-18T22:57:49.098Z,7.47
2023-04-18T23:00:18.812Z,8.77
2023-04-18T23:02:48.954Z,8.60
2023-04-18T23:05:18.098Z,7.65
2023-04-18T23:07:46.779Z,7.30
2023-04-18T23:10:15.728Z,7.00
2023-04-18T23:12:44.408Z,7.00
2023-04-18T23:15:13.630Z,8.25
2023-04-18T23:17:42.352Z,7.72
2023-04-18T23:20:14.109Z,7.05
2023-04-18T23:22:42.765Z,7.22
2023-04-18T23:25:11.866Z,7.65
2023-04-18T23:27:40.502Z,6.10
2023-04-18T23:30:11.026Z,6.45
2023-04-18T23:32:39.754Z,8.90
2023-04-18T23:35:09.548Z,10.80
2023-04-18T23:37:39.585Z,9.35
2023-04-18T23:40:10.129Z,9.05
2023-04-18T23:42:38.762Z,7.68
2023-04-18T23:45:08.873Z,8.98
2023-04-18T23:47:37.578Z,7.63
2023-04-18T23:50:08.240Z,7.90
2023-04-18T23:52:38.188Z,6.97
2023-04-18T23:55:10.018Z,8.98
2023-04-18T23:57:38.671Z,7.38
